sensor_id;sensor_type;location;lat;lon;timestamp;temperature;humidity
13585;DHT22;6863;48.402;9.994;2023-03-21T00:00:37;8.90;99.90
13585;DHT22;6863;48.402;9.994;2023-03-21T00:03:03;8.80;99.90
13585;DHT22;6863;48.402;9.994;2023-03-21T00:05:29;8.80;99.90
13585;DHT22;6863;48.402;9.994;2023-03-21T00:07:55;8.90;99.90
13585;DHT22;6863;48.402;9.994;2023-03-21T00:10:20;8.90;99.90
13585;DHT22;6863;48.402;9.994;2023-03-21T00:12:46;8.80;99.90
13585;DHT22;6863;48.402;9.994;2023-03-21T00:15:14;8.80;99.90
13585;DHT22;6863;48.402;9.994;2023-03-21T00:17:43;8.80;99.90
13585;DHT22;6863;48.402;9.994;2023-03-21T00:20:09;8.80;99.90
13585;DHT22;6863;48.402;9.994;2023-03-21T00:22:40;8.80;99.90
13585;DHT22;6863;48.402;9.994;2023-03-21T00:25:07;8.80;99.90
13585;DHT22;6863;48.402;9.994;2023-03-21T00:27:33;8.80;99.90
13585;DHT22;6863;48.402;9.994;2023-03-21T00:29:59;8.80;99.90
13585;DHT22;6863;48.402;9.994;2023-03-21T00:32:25;8.80;99.90
13585;DHT22;6863;48.402;9.994;2023-03-21T00:34:51;8.80;99.90
13585;DHT22;6863;48.402;9.994;2023-03-21T00:37:17;8.80;99.90
13585;DHT22;6863;48.402;9.994;2023-03-21T00:39:43;8.70;99.90
13585;DHT22;6863;48.402;9.994;2023-03-21T00:42:16;8.70;99.90
13585;DHT22;6863;48.402;9.994;2023-03-21T00:44:42;8.70;99.90
13585;DHT22;6863;48.402;9.994;2023-03-21T00:47:11;8.70;99.90
13585;DHT22;6863;48.402;9.994;2023-03-21T00:49:37;8.70;99.90
13585;DHT22;6863;48.402;9.994;2023-03-21T00:52:08;8.70;99.90
13585;DHT22;6863;48.402;9.994;2023-03-21T00:54:35;8.60;99.90
13585;DHT22;6863;48.402;9.994;2023-03-21T00:57:02;8.60;99.90
13585;DHT22;6863;48.402;9.994;2023-03-21T00:59:29;8.60;99.90
13585;DHT22;6863;48.402;9.994;2023-03-21T01:01:55;8.60;99.90
13585;DHT22;6863;48.402;9.994;2023-03-21T01:04:26;8.50;99.90
13585;DHT22;6863;48.402;9.994;2023-03-21T01:06:53;8.50;99.90
13585;DHT22;6863;48.402;9.994;2023-03-21T01:09:21;8.50;99.90
13585;DHT22;6863;48.402;9.994;2023-03-21T01:11:48;8.50;99.90
13585;DHT22;6863;48.402;9.994;2023-03-21T01:14:16;8.50;99.90
13585;DHT22;6863;48.402;9.994;2023-03-21T01:16:43;8.50;99.90
13585;DHT22;6863;48.402;9.994;2023-03-21T01:19:11;8.50;99.90
13585;DHT22;6863;48.402;9.994;2023-03-21T01:21:37;8.50;99.90
13585;DHT22;6863;48.402;9.994;2023-03-21T01:24:03;8.50;99.90
13585;DHT22;6863;48.402;9.994;2023-03-21T01:26:29;8.50;99.90
13585;DHT22;6863;48.402;9.994;2023-03-21T01:28:55;8.50;99.90
13585;DHT22;6863;48.402;9.994;2023-03-21T01:31:20;8.50;99.90
13585;DHT22;6863;48.402;9.994;2023-03-21T01:33:46;8.50;99.90
13585;DHT22;6863;48.402;9.994;2023-03-21T01:36:20;8.50;99.90
13585;DHT22;6863;48.402;9.994;2023-03-21T01:38:46;8.40;99.90
13585;DHT22;6863;48.402;9.994;2023-03-21T01:41:32;8.40;99.90
13585;DHT22;6863;48.402;9.994;2023-03-21T01:43:59;8.40;99.90
13585;DHT22;6863;48.402;9.994;2023-03-21T01:49:14;8.40;99.90
13585;DHT22;6863;48.402;9.994;2023-03-21T01:51:53;8.40;99.90
13585;DHT22;6863;48.402;9.994;2023-03-21T01:54:24;8.40;99.90
13585;DHT22;6863;48.402;9.994;2023-03-21T01:56:55;8.40;99.90
13585;DHT22;6863;48.402;9.994;2023-03-21T01:59:27;8.40;99.90
13585;DHT22;6863;48.402;9.994;2023-03-21T02:01:55;8.40;99.90
13585;DHT22;6863;48.402;9.994;2023-03-21T02:04:21;8.40;99.90
13585;DHT22;6863;48.402;9.994;2023-03-21T02:07:04;8.40;99.90
13585;DHT22;6863;48.402;9.994;2023-03-21T02:09:33;8.40;99.90
13585;DHT22;6863;48.402;9.994;2023-03-21T02:11:59;8.40;99.90
13585;DHT22;6863;48.402;9.994;2023-03-21T02:14:30;8.40;99.90
13585;DHT22;6863;48.402;9.994;2023-03-21T02:22:26;8.30;99.90
13585;DHT22;6863;48.402;9.994;2023-03-21T02:28:08;8.20;99.90
13585;DHT22;6863;48.402;9.994;2023-03-21T02:40:51;8.20;99.90
13585;DHT22;6863;48.402;9.994;2023-03-21T02:43:23;8.20;99.90
13585;DHT22;6863;48.402;9.994;2023-03-21T02:49:21;8.30;99.90
13585;DHT22;6863;48.402;9.994;2023-03-21T02:51:47;8.30;99.90
13585;DHT22;6863;48.402;9.994;2023-03-21T02:54:16;8.30;99.90
13585;DHT22;6863;48.402;9.994;2023-03-21T02:56:44;8.30;99.90
13585;DHT22;6863;48.402;9.994;2023-03-21T02:59:12;8.20;99.90
13585;DHT22;6863;48.402;9.994;2023-03-21T03:01:39;8.20;99.90
13585;DHT22;6863;48.402;9.994;2023-03-21T03:04:17;8.20;99.90
13585;DHT22;6863;48.402;9.994;2023-03-21T03:06:56;8.20;99.90
13585;DHT22;6863;48.402;9.994;2023-03-21T03:12:07;8.20;99.90
13585;DHT22;6863;48.402;9.994;2023-03-21T03:15:03;8.20;99.90
13585;DHT22;6863;48.402;9.994;2023-03-21T03:22:57;8.00;99.90
13585;DHT22;6863;48.402;9.994;2023-03-21T03:25:50;8.00;99.90
13585;DHT22;6863;48.402;9.994;2023-03-21T03:28:21;8.00;99.90
13585;DHT22;6863;48.402;9.994;2023-03-21T03:30:48;7.90;99.90
13585;DHT22;6863;48.402;9.994;2023-03-21T03:33:15;7.80;99.90
13585;DHT22;6863;48.402;9.994;2023-03-21T03:35:43;7.80;99.90
13585;DHT22;6863;48.402;9.994;2023-03-21T03:38:11;7.80;99.90
13585;DHT22;6863;48.402;9.994;2023-03-21T03:40:49;7.80;99.90
13585;DHT22;6863;48.402;9.994;2023-03-21T03:43:23;7.70;99.90
13585;DHT22;6863;48.402;9.994;2023-03-21T03:45:57;7.60;99.90
13585;DHT22;6863;48.402;9.994;2023-03-21T03:48:36;7.50;99.90
13585;DHT22;6863;48.402;9.994;2023-03-21T03:51:14;7.40;99.90
13585;DHT22;6863;48.402;9.994;2023-03-21T03:56:20;7.30;99.90
13585;DHT22;6863;48.402;9.994;2023-03-21T03:58:46;7.30;99.90
13585;DHT22;6863;48.402;9.994;2023-03-21T04:01:11;7.30;99.90
13585;DHT22;6863;48.402;9.994;2023-03-21T04:03:40;7.30;99.90
13585;DHT22;6863;48.402;9.994;2023-03-21T04:06:07;7.40;99.90
13585;DHT22;6863;48.402;9.994;2023-03-21T04:08:32;7.40;99.90
13585;DHT22;6863;48.402;9.994;2023-03-21T04:10:58;7.40;99.90
13585;DHT22;6863;48.402;9.994;2023-03-21T04:13:25;7.40;99.90
13585;DHT22;6863;48.402;9.994;2023-03-21T04:15:51;7.40;99.90
13585;DHT22;6863;48.402;9.994;2023-03-21T04:18:17;7.40;99.90
13585;DHT22;6863;48.402;9.994;2023-03-21T04:20:43;7.40;99.90
13585;DHT22;6863;48.402;9.994;2023-03-21T04:23:09;7.50;99.90
13585;DHT22;6863;48.402;9.994;2023-03-21T04:25:36;7.50;99.90
13585;DHT22;6863;48.402;9.994;2023-03-21T04:28:02;7.50;99.90
13585;DHT22;6863;48.402;9.994;2023-03-21T04:30:28;7.50;99.90
13585;DHT22;6863;48.402;9.994;2023-03-21T04:32:53;7.50;99.90
13585;DHT22;6863;48.402;9.994;2023-03-21T04:35:22;7.50;99.90
13585;DHT22;6863;48.402;9.994;2023-03-21T04:37:48;7.50;99.90
13585;DHT22;6863;48.402;9.994;2023-03-21T04:40:14;7.50;99.90
13585;DHT22;6863;48.402;9.994;2023-03-21T04:42:43;7.50;99.90
13585;DHT22;6863;48.402;9.994;2023-03-21T04:45:09;7.50;99.90
13585;DHT22;6863;48.402;9.994;2023-03-21T04:47:35;7.50;99.90
13585;DHT22;6863;48.402;9.994;2023-03-21T04:50:01;7.60;99.90
13585;DHT22;6863;48.402;9.994;2023-03-21T04:52:26;7.60;99.90
13585;DHT22;6863;48.402;9.994;2023-03-21T04:54:52;7.60;99.90
13585;DHT22;6863;48.402;9.994;2023-03-21T04:57:18;7.60;99.90
13585;DHT22;6863;48.402;9.994;2023-03-21T04:59:43;7.70;99.90
13585;DHT22;6863;48.402;9.994;2023-03-21T05:02:09;7.70;99.90
13585;DHT22;6863;48.402;9.994;2023-03-21T05:04:35;7.60;99.90
13585;DHT22;6863;48.402;9.994;2023-03-21T05:07:00;7.60;99.90
13585;DHT22;6863;48.402;9.994;2023-03-21T05:09:26;7.60;99.90
13585;DHT22;6863;48.402;9.994;2023-03-21T05:11:52;7.60;99.90
13585;DHT22;6863;48.402;9.994;2023-03-21T05:14:21;7.60;99.90
13585;DHT22;6863;48.402;9.994;2023-03-21T05:16:47;7.60;99.90
13585;DHT22;6863;48.402;9.994;2023-03-21T05:19:18;7.60;99.90
13585;DHT22;6863;48.402;9.994;2023-03-21T05:21:45;7.50;99.90
13585;DHT22;6863;48.402;9.994;2023-03-21T05:24:19;7.50;99.90
13585;DHT22;6863;48.402;9.994;2023-03-21T05:26:45;7.50;99.90
13585;DHT22;6863;48.402;9.994;2023-03-21T05:29:20;7.50;99.90
13585;DHT22;6863;48.402;9.994;2023-03-21T05:31:46;7.50;99.90
13585;DHT22;6863;48.402;9.994;2023-03-21T05:34:13;7.50;99.90
13585;DHT22;6863;48.402;9.994;2023-03-21T05:36:38;7.50;99.90
13585;DHT22;6863;48.402;9.994;2023-03-21T05:39:04;7.50;99.90
13585;DHT22;6863;48.402;9.994;2023-03-21T05:41:30;7.50;99.90
13585;DHT22;6863;48.402;9.994;2023-03-21T05:43:56;7.60;99.90
13585;DHT22;6863;48.402;9.994;2023-03-21T05:48:50;7.60;99.90
13585;DHT22;6863;48.402;9.994;2023-03-21T05:51:16;7.70;99.90
13585;DHT22;6863;48.402;9.994;2023-03-21T05:53:42;7.70;99.90
13585;DHT22;6863;48.402;9.994;2023-03-21T05:56:08;7.80;99.90
13585;DHT22;6863;48.402;9.994;2023-03-21T05:58:34;7.80;99.90
13585;DHT22;6863;48.402;9.994;2023-03-21T06:00:59;7.80;99.90
13585;DHT22;6863;48.402;9.994;2023-03-21T06:03:25;7.90;99.90
13585;DHT22;6863;48.402;9.994;2023-03-21T06:05:51;7.90;99.90
13585;DHT22;6863;48.402;9.994;2023-03-21T06:08:16;8.00;99.90
13585;DHT22;6863;48.402;9.994;2023-03-21T06:10:42;8.00;99.90
13585;DHT22;6863;48.402;9.994;2023-03-21T06:13:07;8.10;99.90
13585;DHT22;6863;48.402;9.994;2023-03-21T06:15:33;8.10;99.90
13585;DHT22;6863;48.402;9.994;2023-03-21T06:17:59;8.10;99.90
13585;DHT22;6863;48.402;9.994;2023-03-21T06:20:24;8.30;99.90
13585;DHT22;6863;48.402;9.994;2023-03-21T06:22:50;8.30;99.90
13585;DHT22;6863;48.402;9.994;2023-03-21T06:25:16;8.40;99.90
13585;DHT22;6863;48.402;9.994;2023-03-21T06:27:42;8.50;99.90
13585;DHT22;6863;48.402;9.994;2023-03-21T06:30:08;8.60;99.90
13585;DHT22;6863;48.402;9.994;2023-03-21T06:32:34;8.70;99.90
13585;DHT22;6863;48.402;9.994;2023-03-21T06:34:59;8.90;99.90
13585;DHT22;6863;48.402;9.994;2023-03-21T06:37:25;9.10;99.90
13585;DHT22;6863;48.402;9.994;2023-03-21T06:39:51;9.20;99.90
13585;DHT22;6863;48.402;9.994;2023-03-21T06:42:17;9.30;99.90
13585;DHT22;6863;48.402;9.994;2023-03-21T06:44:42;9.40;99.90
13585;DHT22;6863;48.402;9.994;2023-03-21T06:47:08;9.50;99.90
13585;DHT22;6863;48.402;9.994;2023-03-21T06:49:34;9.60;99.90
13585;DHT22;6863;48.402;9.994;2023-03-21T06:51:59;9.70;99.90
13585;DHT22;6863;48.402;9.994;2023-03-21T06:54:25;9.70;99.90
13585;DHT22;6863;48.402;9.994;2023-03-21T06:56:51;9.80;99.90
13585;DHT22;6863;48.402;9.994;2023-03-21T06:59:17;9.80;99.90
13585;DHT22;6863;48.402;9.994;2023-03-21T07:01:42;9.90;99.90
13585;DHT22;6863;48.402;9.994;2023-03-21T07:04:09;9.90;99.90
13585;DHT22;6863;48.402;9.994;2023-03-21T07:06:35;10.00;99.90
13585;DHT22;6863;48.402;9.994;2023-03-21T07:09:02;10.20;99.90
13585;DHT22;6863;48.402;9.994;2023-03-21T07:11:27;10.10;99.90
13585;DHT22;6863;48.402;9.994;2023-03-21T07:13:53;10.20;99.90
13585;DHT22;6863;48.402;9.994;2023-03-21T07:16:19;10.40;99.90
13585;DHT22;6863;48.402;9.994;2023-03-21T07:18:46;10.50;99.90
13585;DHT22;6863;48.402;9.994;2023-03-21T07:21:12;10.60;99.40
13585;DHT22;6863;48.402;9.994;2023-03-21T07:23:38;10.70;99.20
13585;DHT22;6863;48.402;9.994;2023-03-21T07:26:04;10.80;99.10
13585;DHT22;6863;48.402;9.994;2023-03-21T07:28:30;10.90;98.90
13585;DHT22;6863;48.402;9.994;2023-03-21T07:31:02;10.90;98.60
13585;DHT22;6863;48.402;9.994;2023-03-21T07:33:29;10.90;98.60
13585;DHT22;6863;48.402;9.994;2023-03-21T07:35:55;11.00;98.70
13585;DHT22;6863;48.402;9.994;2023-03-21T07:38:23;11.20;98.70
13585;DHT22;6863;48.402;9.994;2023-03-21T07:40:49;11.40;97.90
13585;DHT22;6863;48.402;9.994;2023-03-21T07:43:15;11.70;97.50
13585;DHT22;6863;48.402;9.994;2023-03-21T07:45:42;11.90;97.00
13585;DHT22;6863;48.402;9.994;2023-03-21T07:48:08;11.90;96.90
13585;DHT22;6863;48.402;9.994;2023-03-21T07:50:34;12.10;97.00
13585;DHT22;6863;48.402;9.994;2023-03-21T07:52:59;12.20;96.80
13585;DHT22;6863;48.402;9.994;2023-03-21T07:55:26;12.60;95.90
13585;DHT22;6863;48.402;9.994;2023-03-21T07:57:51;12.50;95.90
13585;DHT22;6863;48.402;9.994;2023-03-21T08:00:18;12.60;96.20
13585;DHT22;6863;48.402;9.994;2023-03-21T08:02:54;12.80;95.80
13585;DHT22;6863;48.402;9.994;2023-03-21T08:05:21;12.90;95.30
13585;DHT22;6863;48.402;9.994;2023-03-21T08:07:47;13.10;95.00
13585;DHT22;6863;48.402;9.994;2023-03-21T08:10:13;13.30;94.40
13585;DHT22;6863;48.402;9.994;2023-03-21T08:12:39;13.70;93.80
13585;DHT22;6863;48.402;9.994;2023-03-21T08:15:05;13.80;92.90
13585;DHT22;6863;48.402;9.994;2023-03-21T08:17:31;13.80;92.80
13585;DHT22;6863;48.402;9.994;2023-03-21T08:19:56;13.60;93.20
13585;DHT22;6863;48.402;9.994;2023-03-21T08:22:22;13.80;93.10
13585;DHT22;6863;48.402;9.994;2023-03-21T08:24:48;14.30;92.30
13585;DHT22;6863;48.402;9.994;2023-03-21T08:27:13;14.20;91.80
13585;DHT22;6863;48.402;9.994;2023-03-21T08:29:39;14.30;92.00
13585;DHT22;6863;48.402;9.994;2023-03-21T08:32:07;14.30;91.10
13585;DHT22;6863;48.402;9.994;2023-03-21T08:34:32;14.20;91.40
13585;DHT22;6863;48.402;9.994;2023-03-21T08:36:59;14.50;90.00
13585;DHT22;6863;48.402;9.994;2023-03-21T08:39:25;14.30;90.20
13585;DHT22;6863;48.402;9.994;2023-03-21T08:41:51;14.70;89.70
13585;DHT22;6863;48.402;9.994;2023-03-21T08:44:17;14.70;88.90
13585;DHT22;6863;48.402;9.994;2023-03-21T08:46:43;14.90;88.70
13585;DHT22;6863;48.402;9.994;2023-03-21T08:49:18;15.20;87.40
13585;DHT22;6863;48.402;9.994;2023-03-21T08:51:45;15.10;87.70
13585;DHT22;6863;48.402;9.994;2023-03-21T08:54:21;15.30;86.40
13585;DHT22;6863;48.402;9.994;2023-03-21T08:56:47;15.50;86.10
13585;DHT22;6863;48.402;9.994;2023-03-21T08:59:13;15.60;85.30
13585;DHT22;6863;48.402;9.994;2023-03-21T09:01:39;16.20;83.20
13585;DHT22;6863;48.402;9.994;2023-03-21T09:04:05;16.60;79.80
13585;DHT22;6863;48.402;9.994;2023-03-21T09:06:32;16.70;79.70
13585;DHT22;6863;48.402;9.994;2023-03-21T09:08:58;15.90;78.60
13585;DHT22;6863;48.402;9.994;2023-03-21T09:11:24;15.80;79.40
13585;DHT22;6863;48.402;9.994;2023-03-21T09:13:50;16.20;79.10
13585;DHT22;6863;48.402;9.994;2023-03-21T09:16:15;16.20;77.90
13585;DHT22;6863;48.402;9.994;2023-03-21T09:18:41;16.70;76.10
13585;DHT22;6863;48.402;9.994;2023-03-21T09:21:10;16.80;74.70
13585;DHT22;6863;48.402;9.994;2023-03-21T09:23:38;17.60;71.40
13585;DHT22;6863;48.402;9.994;2023-03-21T09:26:04;17.50;71.70
13585;DHT22;6863;48.402;9.994;2023-03-21T09:28:31;17.80;69.50
13585;DHT22;6863;48.402;9.994;2023-03-21T09:30:58;17.60;68.60
13585;DHT22;6863;48.402;9.994;2023-03-21T09:33:27;17.30;71.50
13585;DHT22;6863;48.402;9.994;2023-03-21T09:35:54;17.50;70.70
13585;DHT22;6863;48.402;9.994;2023-03-21T09:38:20;17.50;68.10
13585;DHT22;6863;48.402;9.994;2023-03-21T09:40:58;17.10;67.30
13585;DHT22;6863;48.402;9.994;2023-03-21T09:49:03;17.80;67.50
13585;DHT22;6863;48.402;9.994;2023-03-21T09:51:38;18.90;65.40
13585;DHT22;6863;48.402;9.994;2023-03-21T09:56:45;19.70;61.60
13585;DHT22;6863;48.402;9.994;2023-03-21T09:59:36;20.00;59.70
13585;DHT22;6863;48.402;9.994;2023-03-21T10:02:42;20.00;59.00
13585;DHT22;6863;48.402;9.994;2023-03-21T10:05:20;19.70;58.90
13585;DHT22;6863;48.402;9.994;2023-03-21T10:10:21;19.40;60.00
13585;DHT22;6863;48.402;9.994;2023-03-21T10:12:49;19.80;59.90
13585;DHT22;6863;48.402;9.994;2023-03-21T10:15:19;20.60;58.50
13585;DHT22;6863;48.402;9.994;2023-03-21T10:17:59;21.90;56.10
13585;DHT22;6863;48.402;9.994;2023-03-21T10:20:35;23.40;52.60
13585;DHT22;6863;48.402;9.994;2023-03-21T10:23:07;25.40;48.30
13585;DHT22;6863;48.402;9.994;2023-03-21T10:25:36;26.70;43.60
13585;DHT22;6863;48.402;9.994;2023-03-21T10:28:05;27.80;42.10
13585;DHT22;6863;48.402;9.994;2023-03-21T10:30:45;27.90;39.10
13585;DHT22;6863;48.402;9.994;2023-03-21T10:33:17;28.50;38.20
13585;DHT22;6863;48.402;9.994;2023-03-21T10:35:49;27.90;37.00
13585;DHT22;6863;48.402;9.994;2023-03-21T10:38:18;27.10;37.60
13585;DHT22;6863;48.402;9.994;2023-03-21T10:40:48;24.10;41.20
13585;DHT22;6863;48.402;9.994;2023-03-21T10:45:45;24.10;42.60
13585;DHT22;6863;48.402;9.994;2023-03-21T10:48:11;24.70;42.00
13585;DHT22;6863;48.402;9.994;2023-03-21T10:50:37;24.20;43.30
13585;DHT22;6863;48.402;9.994;2023-03-21T10:53:12;26.30;40.90
13585;DHT22;6863;48.402;9.994;2023-03-21T10:55:40;28.10;37.90
13585;DHT22;6863;48.402;9.994;2023-03-21T10:58:09;27.80;36.30
13585;DHT22;6863;48.402;9.994;2023-03-21T11:00:43;27.40;36.70
13585;DHT22;6863;48.402;9.994;2023-03-21T11:03:26;27.70;37.20
13585;DHT22;6863;48.402;9.994;2023-03-21T11:08:53;29.60;35.00
13585;DHT22;6863;48.402;9.994;2023-03-21T11:11:25;29.20;33.60
13585;DHT22;6863;48.402;9.994;2023-03-21T11:14:01;28.80;33.80
13585;DHT22;6863;48.402;9.994;2023-03-21T11:16:41;27.30;35.80
13585;DHT22;6863;48.402;9.994;2023-03-21T11:19:17;26.70;37.50
13585;DHT22;6863;48.402;9.994;2023-03-21T11:21:44;25.70;38.10
13585;DHT22;6863;48.402;9.994;2023-03-21T11:24:15;26.40;38.30
13585;DHT22;6863;48.402;9.994;2023-03-21T11:26:43;27.20;36.80
13585;DHT22;6863;48.402;9.994;2023-03-21T11:29:37;27.40;35.80
13585;DHT22;6863;48.402;9.994;2023-03-21T11:35:06;26.80;37.00
13585;DHT22;6863;48.402;9.994;2023-03-21T11:37:42;27.20;35.50
13585;DHT22;6863;48.402;9.994;2023-03-21T11:42:50;27.80;35.40
13585;DHT22;6863;48.402;9.994;2023-03-21T11:45:28;29.00;33.20
13585;DHT22;6863;48.402;9.994;2023-03-21T11:47:55;27.40;34.10
13585;DHT22;6863;48.402;9.994;2023-03-21T11:50:40;25.70;37.20
13585;DHT22;6863;48.402;9.994;2023-03-21T11:56:22;28.70;32.50
13585;DHT22;6863;48.402;9.994;2023-03-21T12:01:31;27.20;34.40
13585;DHT22;6863;48.402;9.994;2023-03-21T12:05:06;26.70;35.40
13585;DHT22;6863;48.402;9.994;2023-03-21T12:24:49;23.70;41.10
13585;DHT22;6863;48.402;9.994;2023-03-21T12:27:32;24.10;39.40
13585;DHT22;6863;48.402;9.994;2023-03-21T12:30:14;23.90;38.90
13585;DHT22;6863;48.402;9.994;2023-03-21T12:38:26;24.30;40.10
13585;DHT22;6863;48.402;9.994;2023-03-21T12:41:09;25.40;38.50
13585;DHT22;6863;48.402;9.994;2023-03-21T12:46:21;24.30;39.40
13585;DHT22;6863;48.402;9.994;2023-03-21T12:51:31;24.80;38.20
13585;DHT22;6863;48.402;9.994;2023-03-21T12:54:03;23.30;40.70
13585;DHT22;6863;48.402;9.994;2023-03-21T12:56:39;23.10;41.30
13585;DHT22;6863;48.402;9.994;2023-03-21T13:01:49;22.60;42.70
13585;DHT22;6863;48.402;9.994;2023-03-21T13:04:39;22.60;43.10
13585;DHT22;6863;48.402;9.994;2023-03-21T13:07:09;22.50;42.90
13585;DHT22;6863;48.402;9.994;2023-03-21T13:09:40;22.40;44.00
13585;DHT22;6863;48.402;9.994;2023-03-21T13:12:39;22.80;43.70
13585;DHT22;6863;48.402;9.994;2023-03-21T13:15:25;22.20;42.80
13585;DHT22;6863;48.402;9.994;2023-03-21T13:23:08;21.60;45.00
13585;DHT22;6863;48.402;9.994;2023-03-21T13:25:47;20.80;45.90
13585;DHT22;6863;48.402;9.994;2023-03-21T13:28:21;20.10;47.10
13585;DHT22;6863;48.402;9.994;2023-03-21T13:30:50;19.70;47.80
13585;DHT22;6863;48.402;9.994;2023-03-21T13:33:36;19.50;48.50
13585;DHT22;6863;48.402;9.994;2023-03-21T13:36:13;18.60;49.80
13585;DHT22;6863;48.402;9.994;2023-03-21T13:38:40;18.60;50.30
13585;DHT22;6863;48.402;9.994;2023-03-21T13:41:15;18.30;50.40
13585;DHT22;6863;48.402;9.994;2023-03-21T13:46:54;18.50;51.60
13585;DHT22;6863;48.402;9.994;2023-03-21T13:49:34;18.80;50.80
13585;DHT22;6863;48.402;9.994;2023-03-21T13:52:24;18.80;50.40
13585;DHT22;6863;48.402;9.994;2023-03-21T13:54:51;18.60;49.90
13585;DHT22;6863;48.402;9.994;2023-03-21T13:57:21;18.30;49.90
13585;DHT22;6863;48.402;9.994;2023-03-21T13:59:47;18.00;51.30
13585;DHT22;6863;48.402;9.994;2023-03-21T14:02:31;18.20;51.60
13585;DHT22;6863;48.402;9.994;2023-03-21T14:05:04;17.60;51.20
13585;DHT22;6863;48.402;9.994;2023-03-21T14:07:33;17.40;52.20
13585;DHT22;6863;48.402;9.994;2023-03-21T14:10:19;17.50;52.30
13585;DHT22;6863;48.402;9.994;2023-03-21T14:12:46;17.90;51.70
13585;DHT22;6863;48.402;9.994;2023-03-21T14:15:22;17.80;51.50
13585;DHT22;6863;48.402;9.994;2023-03-21T14:17:56;17.80;51.50
13585;DHT22;6863;48.402;9.994;2023-03-21T14:20:24;17.80;51.50
13585;DHT22;6863;48.402;9.994;2023-03-21T14:22:50;17.70;51.60
13585;DHT22;6863;48.402;9.994;2023-03-21T14:25:18;17.70;51.60
13585;DHT22;6863;48.402;9.994;2023-03-21T14:27:51;17.30;52.20
13585;DHT22;6863;48.402;9.994;2023-03-21T14:30:31;17.20;52.50
13585;DHT22;6863;48.402;9.994;2023-03-21T14:33:15;17.10;52.90
13585;DHT22;6863;48.402;9.994;2023-03-21T14:35:46;17.00;52.20
13585;DHT22;6863;48.402;9.994;2023-03-21T14:38:26;16.90;52.30
13585;DHT22;6863;48.402;9.994;2023-03-21T14:40:56;16.90;51.80
13585;DHT22;6863;48.402;9.994;2023-03-21T14:43:24;16.50;51.80
13585;DHT22;6863;48.402;9.994;2023-03-21T14:45:53;16.20;52.90
13585;DHT22;6863;48.402;9.994;2023-03-21T14:48:21;16.30;54.00
13585;DHT22;6863;48.402;9.994;2023-03-21T14:50:54;16.40;53.10
13585;DHT22;6863;48.402;9.994;2023-03-21T14:53:24;16.30;52.50
13585;DHT22;6863;48.402;9.994;2023-03-21T14:56:16;16.20;52.70
13585;DHT22;6863;48.402;9.994;2023-03-21T14:58:45;16.20;52.80
13585;DHT22;6863;48.402;9.994;2023-03-21T15:01:21;16.20;53.20
13585;DHT22;6863;48.402;9.994;2023-03-21T15:03:50;16.30;53.20
13585;DHT22;6863;48.402;9.994;2023-03-21T15:06:16;16.40;53.40
13585;DHT22;6863;48.402;9.994;2023-03-21T15:08:54;16.30;53.60
13585;DHT22;6863;48.402;9.994;2023-03-21T15:11:31;16.30;54.10
13585;DHT22;6863;48.402;9.994;2023-03-21T15:14:03;16.30;54.10
13585;DHT22;6863;48.402;9.994;2023-03-21T15:16:33;16.40;54.30
13585;DHT22;6863;48.402;9.994;2023-03-21T15:19:00;16.50;54.40
13585;DHT22;6863;48.402;9.994;2023-03-21T15:21:34;16.50;54.60
13585;DHT22;6863;48.402;9.994;2023-03-21T15:24:08;16.40;55.70
13585;DHT22;6863;48.402;9.994;2023-03-21T15:26:38;16.20;56.50
13585;DHT22;6863;48.402;9.994;2023-03-21T15:29:05;16.20;57.20
13585;DHT22;6863;48.402;9.994;2023-03-21T15:31:35;15.90;57.50
13585;DHT22;6863;48.402;9.994;2023-03-21T15:34:03;15.90;58.10
13585;DHT22;6863;48.402;9.994;2023-03-21T15:36:36;15.90;58.60
13585;DHT22;6863;48.402;9.994;2023-03-21T15:39:06;15.90;58.40
13585;DHT22;6863;48.402;9.994;2023-03-21T15:41:33;15.90;58.80
13585;DHT22;6863;48.402;9.994;2023-03-21T15:52:13;15.80;58.00
13585;DHT22;6863;48.402;9.994;2023-03-21T15:54:48;15.60;57.60
13585;DHT22;6863;48.402;9.994;2023-03-21T15:57:29;15.50;56.40
13585;DHT22;6863;48.402;9.994;2023-03-21T16:00:20;15.40;57.10
13585;DHT22;6863;48.402;9.994;2023-03-21T16:02:49;15.40;57.70
13585;DHT22;6863;48.402;9.994;2023-03-21T16:05:32;15.40;57.10
13585;DHT22;6863;48.402;9.994;2023-03-21T16:08:05;15.40;57.00
13585;DHT22;6863;48.402;9.994;2023-03-21T16:10:41;15.20;56.40
13585;DHT22;6863;48.402;9.994;2023-03-21T16:13:10;15.20;55.40
13585;DHT22;6863;48.402;9.994;2023-03-21T16:15:38;15.20;54.90
13585;DHT22;6863;48.402;9.994;2023-03-21T16:18:05;15.20;53.60
13585;DHT22;6863;48.402;9.994;2023-03-21T16:20:34;15.00;53.80
13585;DHT22;6863;48.402;9.994;2023-03-21T16:23:01;15.00;53.50
13585;DHT22;6863;48.402;9.994;2023-03-21T16:25:29;15.00;53.40
13585;DHT22;6863;48.402;9.994;2023-03-21T16:27:55;14.90;53.60
13585;DHT22;6863;48.402;9.994;2023-03-21T16:30:24;14.90;54.10
13585;DHT22;6863;48.402;9.994;2023-03-21T16:32:50;14.90;54.80
13585;DHT22;6863;48.402;9.994;2023-03-21T16:35:16;14.80;56.30
13585;DHT22;6863;48.402;9.994;2023-03-21T16:37:43;14.80;57.40
13585;DHT22;6863;48.402;9.994;2023-03-21T16:40:47;14.80;58.10
13585;DHT22;6863;48.402;9.994;2023-03-21T16:43:10;14.70;58.70
13585;DHT22;6863;48.402;9.994;2023-03-21T16:45:36;14.70;59.20
13585;DHT22;6863;48.402;9.994;2023-03-21T16:48:03;14.70;59.80
13585;DHT22;6863;48.402;9.994;2023-03-21T16:50:35;14.70;60.40
13585;DHT22;6863;48.402;9.994;2023-03-21T16:53:04;14.60;60.80
13585;DHT22;6863;48.402;9.994;2023-03-21T16:55:30;14.60;61.30
13585;DHT22;6863;48.402;9.994;2023-03-21T16:57:58;14.60;61.60
13585;DHT22;6863;48.402;9.994;2023-03-21T17:00:26;14.60;62.00
13585;DHT22;6863;48.402;9.994;2023-03-21T17:02:54;14.60;62.30
13585;DHT22;6863;48.402;9.994;2023-03-21T17:05:23;14.50;62.40
13585;DHT22;6863;48.402;9.994;2023-03-21T17:07:51;14.50;62.70
13585;DHT22;6863;48.402;9.994;2023-03-21T17:10:30;14.40;63.00
13585;DHT22;6863;48.402;9.994;2023-03-21T17:12:55;14.50;63.60
13585;DHT22;6863;48.402;9.994;2023-03-21T17:15:21;14.40;63.70
13585;DHT22;6863;48.402;9.994;2023-03-21T17:17:47;14.30;63.80
13585;DHT22;6863;48.402;9.994;2023-03-21T17:20:25;14.20;63.60
13585;DHT22;6863;48.402;9.994;2023-03-21T17:22:52;14.20;64.60
13585;DHT22;6863;48.402;9.994;2023-03-21T17:25:18;14.10;64.70
13585;DHT22;6863;48.402;9.994;2023-03-21T17:27:44;14.10;65.10
13585;DHT22;6863;48.402;9.994;2023-03-21T17:30:34;14.10;64.30
13585;DHT22;6863;48.402;9.994;2023-03-21T17:33:00;14.00;64.60
13585;DHT22;6863;48.402;9.994;2023-03-21T17:35:26;14.00;64.90
13585;DHT22;6863;48.402;9.994;2023-03-21T17:37:53;13.90;64.90
13585;DHT22;6863;48.402;9.994;2023-03-21T17:40:24;13.90;64.90
13585;DHT22;6863;48.402;9.994;2023-03-21T17:42:50;13.90;65.30
13585;DHT22;6863;48.402;9.994;2023-03-21T17:45:17;13.90;65.60
13585;DHT22;6863;48.402;9.994;2023-03-21T17:47:43;13.80;65.90
13585;DHT22;6863;48.402;9.994;2023-03-21T17:50:18;13.70;66.90
13585;DHT22;6863;48.402;9.994;2023-03-21T17:52:45;13.70;66.80
13585;DHT22;6863;48.402;9.994;2023-03-21T17:55:11;13.70;67.20
13585;DHT22;6863;48.402;9.994;2023-03-21T17:57:37;13.70;67.60
13585;DHT22;6863;48.402;9.994;2023-03-21T18:00:05;13.70;68.30
13585;DHT22;6863;48.402;9.994;2023-03-21T18:02:37;13.60;69.30